Wejh, Saudi Arabia
Current Conditions -  °F | °C
As of 2:00 PM on Thursday 23 Oct 2014 (Local Time) from OEWJ Reporting Station
Clear Clear  
Wind Chill: 88°   Ceiling: Unl
Heat Index: 96°   Visibility: 6mi
Dew Point: 73°   Wind: 20mph
Humidity: 62%   Direction: 300°WNW
Pressure: 29.91"   Gusts: NA
Location:  26.2°N, 36.48°E
Report Text: OEWJ 231100Z 30017KT CAVOK 31/23 Q1013 NOSIG
Loading
Personal Weather Stations






























Interactive Weather Map
Tropical Storm Tracking
New forecast layout! Learn more

10-Day Weather Forecast

Advertisements
Track Severe Weather on mobile